Time;durP1;ratioP1;P1;durP2;ratioP2;P2;SDS_P1;SDS_P2;PMS_P1;PMS_P2;Temp;Humidity;BMP_temperature;BMP_pressure;BME280_temperature;BME280_humidity;BME280_pressure;Samples;Min_cycle;Max_cycle;Signal;HPM_P1;HPM_P2
2022/11/14 00:00:06;;;;;;;24.83;20.30;;;;;;;;;;5071629;28;20454;-73
2022/11/14 00:02:55;;;;;;;27.03;20.70;;;;;;;;;;5064725;28;22375;-72
2022/11/14 00:05:46;;;;;;;24.57;20.47;;;;;;;;;;5073811;28;20454;-72
2022/11/14 00:08:39;;;;;;;25.67;20.80;;;;;;;;;;5064701;28;20561;-72
2022/11/14 00:11:29;;;;;;;26.50;20.73;;;;;;;;;;5071882;28;20961;-73
2022/11/14 00:14:22;;;;;;;29.20;21.40;;;;;;;;;;5068807;28;20453;-73
2022/11/14 00:17:15;;;;;;;28.90;21.07;;;;;;;;;;5069351;28;20976;-72
2022/11/14 00:20:05;;;;;;;26.00;20.70;;;;;;;;;;5073072;28;20524;-73
2022/11/14 00:22:54;;;;;;;26.77;20.63;;;;;;;;;;5063194;28;20477;-73
2022/11/14 00:25:46;;;;;;;25.60;20.60;;;;;;;;;;5073955;28;20457;-72
2022/11/14 00:28:36;;;;;;;27.63;20.80;;;;;;;;;;5069595;28;20438;-73
2022/11/14 00:31:32;;;;;;;24.57;20.37;;;;;;;;;;5069686;28;20473;-73
2022/11/14 00:34:23;;;;;;;31.57;22.50;;;;;;;;;;5064679;28;20461;-73
2022/11/14 00:37:13;;;;;;;29.60;21.60;;;;;;;;;;5076173;28;20491;-72
2022/11/14 00:40:03;;;;;;;25.77;20.20;;;;;;;;;;5078032;28;20443;-73
2022/11/14 00:42:57;;;;;;;28.07;21.80;;;;;;;;;;5074248;28;20473;-73
2022/11/14 00:45:56;;;;;;;27.60;21.23;;;;;;;;;;5075575;28;20563;-73
2022/11/14 00:48:49;;;;;;;26.00;21.10;;;;;;;;;;5070428;28;20457;-73
2022/11/14 00:51:38;;;;;;;29.27;21.27;;;;;;;;;;5070701;28;20500;-73
2022/11/14 00:54:34;;;;;;;30.93;21.43;;;;;;;;;;5075339;28;20463;-73
2022/11/14 00:57:22;;;;;;;26.40;19.27;;;;;;;;;;5074188;28;20454;-73
2022/11/14 01:00:15;;;;;;;30.67;21.30;;;;;;;;;;5072170;28;20458;-72
2022/11/14 01:03:03;;;;;;;25.03;20.50;;;;;;;;;;5072356;28;20571;-72
2022/11/14 01:05:57;;;;;;;26.10;20.60;;;;;;;;;;5074457;28;20458;-73
2022/11/14 01:08:46;;;;;;;25.20;20.53;;;;;;;;;;5070001;28;20457;-73
2022/11/14 01:11:40;;;;;;;27.63;20.60;;;;;;;;;;5070015;28;20539;-72
2022/11/14 01:14:30;;;;;;;26.53;21.27;;;;;;;;;;5063717;28;20453;-73
2022/11/14 01:17:21;;;;;;;30.37;20.80;;;;;;;;;;5070490;28;20450;-73
2022/11/14 01:20:12;;;;;;;27.10;20.73;;;;;;;;;;5074416;28;21048;-73
2022/11/14 01:23:09;;;;;;;27.83;21.20;;;;;;;;;;5065093;28;20844;-73
2022/11/14 01:26:08;;;;;;;29.77;22.13;;;;;;;;;;5070507;28;21027;-72
2022/11/14 01:28:56;;;;;;;28.83;21.43;;;;;;;;;;5071913;28;20464;-71
2022/11/14 01:31:49;;;;;;;27.50;20.83;;;;;;;;;;5066211;28;20492;-73
2022/11/14 01:34:44;;;;;;;27.83;21.43;;;;;;;;;;5068381;28;20453;-73
2022/11/14 01:37:37;;;;;;;28.67;21.83;;;;;;;;;;5071358;28;20529;-73
2022/11/14 01:40:31;;;;;;;30.53;22.40;;;;;;;;;;5071553;28;20444;-73
2022/11/14 01:43:28;;;;;;;28.63;21.67;;;;;;;;;;5071812;28;20555;-72
2022/11/14 01:46:21;;;;;;;27.33;20.97;;;;;;;;;;5074961;28;20445;-73
2022/11/14 01:49:15;;;;;;;28.60;21.80;;;;;;;;;;5070603;28;20462;-73
2022/11/14 01:52:11;;;;;;;28.80;22.30;;;;;;;;;;5068315;28;20478;-73
2022/11/14 01:55:10;;;;;;;30.50;22.80;;;;;;;;;;5077241;28;20461;-72
2022/11/14 01:58:02;;;;;;;26.37;21.07;;;;;;;;;;5071591;28;20451;-72
2022/11/14 02:00:51;;;;;;;28.40;21.57;;;;;;;;;;5071554;28;20474;-73
2022/11/14 02:03:40;;;;;;;28.13;20.90;;;;;;;;;;5078723;28;20450;-72
2022/11/14 02:06:34;;;;;;;29.60;22.57;;;;;;;;;;5074535;28;20466;-73
2022/11/14 02:09:34;;;;;;;30.90;22.57;;;;;;;;;;5078337;28;20532;-72
2022/11/14 02:12:38;;;;;;;;;;;;;;;;;;;;;
2022/11/14 02:15:35;;;;;;;32.33;21.80;;;;;;;;;;5074095;28;21113;-72
2022/11/14 02:18:26;;;;;;;31.83;23.70;;;;;;;;;;5075051;28;21385;-72
2022/11/14 02:21:16;;;;;;;29.17;20.60;;;;;;;;;;5072995;28;20481;-73
2022/11/14 02:24:10;;;;;;;30.83;23.30;;;;;;;;;;5069414;28;20461;-73
2022/11/14 02:30:13;;;;;;;31.73;22.70;;;;;;;;;;5076469;28;20507;-72
2022/11/14 02:33:07;;;;;;;29.50;23.10;;;;;;;;;;5067464;28;20496;-72
2022/11/14 02:36:00;;;;;;;31.60;22.90;;;;;;;;;;5076044;28;20444;-72
2022/11/14 02:38:54;;;;;;;32.17;22.23;;;;;;;;;;5078954;28;20831;-73
2022/11/14 02:41:46;;;;;;;32.67;23.97;;;;;;;;;;5078608;28;20975;-73
2022/11/14 02:44:34;;;;;;;30.57;23.03;;;;;;;;;;5077442;28;20464;-73
2022/11/14 02:47:28;;;;;;;30.53;23.83;;;;;;;;;;5079050;28;20457;-73
2022/11/14 02:50:20;;;;;;;30.63;23.20;;;;;;;;;;5078389;28;20570;-73
2022/11/14 02:53:13;;;;;;;33.20;23.60;;;;;;;;;;5072529;28;20491;-73
2022/11/14 02:56:10;;;;;;;30.70;22.13;;;;;;;;;;5076921;28;20953;-73
2022/11/14 02:59:07;;;;;;;31.53;23.87;;;;;;;;;;5074578;28;21044;-73
2022/11/14 03:02:02;;;;;;;29.23;22.50;;;;;;;;;;5074145;28;20476;-73
2022/11/14 03:04:52;;;;;;;31.03;22.60;;;;;;;;;;5073484;28;20457;-73
2022/11/14 03:07:44;;;;;;;31.80;23.53;;;;;;;;;;5079067;28;20961;-73
2022/11/14 03:10:34;;;;;;;34.10;24.53;;;;;;;;;;5092941;28;20484;-74
2022/11/14 03:13:29;;;;;;;30.80;21.70;;;;;;;;;;5070330;28;20975;-72
2022/11/14 03:16:23;;;;;;;33.70;24.67;;;;;;;;;;5070128;28;20532;-73
2022/11/14 03:19:14;;;;;;;32.77;23.80;;;;;;;;;;5070967;28;20840;-72
2022/11/14 03:22:05;;;;;;;30.73;23.27;;;;;;;;;;5069987;28;20469;-73
2022/11/14 03:24:54;;;;;;;31.40;23.50;;;;;;;;;;5068260;28;20449;-72
2022/11/14 03:27:49;;;;;;;30.67;22.90;;;;;;;;;;5069350;28;20466;-72
2022/11/14 03:30:43;;;;;;;35.20;24.47;;;;;;;;;;5068984;28;20500;-73
2022/11/14 03:33:32;;;;;;;34.70;25.17;;;;;;;;;;5073400;28;20456;-73
2022/11/14 03:36:21;;;;;;;36.07;25.80;;;;;;;;;;5071317;28;20452;-72
2022/11/14 03:39:12;;;;;;;29.77;23.57;;;;;;;;;;5064964;28;20453;-73
2022/11/14 03:42:02;;;;;;;33.00;24.07;;;;;;;;;;5068290;28;21107;-72
2022/11/14 03:44:51;;;;;;;34.60;25.10;;;;;;;;;;5075027;28;20454;-72
2022/11/14 03:47:43;;;;;;;32.50;24.30;;;;;;;;;;5075380;28;20454;-73
2022/11/14 03:50:34;;;;;;;33.33;24.37;;;;;;;;;;5078020;28;20552;-73
2022/11/14 03:53:29;;;;;;;32.30;24.20;;;;;;;;;;5068852;28;20939;-73
2022/11/14 03:56:21;;;;;;;32.90;24.43;;;;;;;;;;5062912;28;20442;-73
2022/11/14 03:59:12;;;;;;;35.87;25.57;;;;;;;;;;5070700;28;20454;-73
2022/11/14 04:02:01;;;;;;;31.33;23.40;;;;;;;;;;5073864;28;20473;-72
2022/11/14 04:04:54;;;;;;;37.30;26.37;;;;;;;;;;5069819;28;20450;-72
2022/11/14 04:07:44;;;;;;;30.60;24.00;;;;;;;;;;5073696;28;20462;-73
2022/11/14 04:10:36;;;;;;;34.03;23.97;;;;;;;;;;5068566;28;20477;-72
2022/11/14 04:13:27;;;;;;;33.77;23.23;;;;;;;;;;5060831;28;20464;-73
2022/11/14 04:16:18;;;;;;;30.70;22.70;;;;;;;;;;5071301;28;20987;-73
2022/11/14 04:19:11;;;;;;;32.90;25.63;;;;;;;;;;5071167;28;20480;-72
2022/11/14 04:22:01;;;;;;;34.93;25.00;;;;;;;;;;5073372;28;20473;-72
2022/11/14 04:24:53;;;;;;;34.40;24.70;;;;;;;;;;5073439;28;20457;-72
2022/11/14 04:27:41;;;;;;;32.50;23.90;;;;;;;;;;5072225;28;20546;-73
2022/11/14 04:30:34;;;;;;;32.07;23.93;;;;;;;;;;5070477;28;20508;-73
2022/11/14 04:33:30;;;;;;;32.40;24.60;;;;;;;;;;5067776;28;21162;-73
2022/11/14 04:36:27;;;;;;;33.77;25.13;;;;;;;;;;5072200;28;21460;-73
2022/11/14 04:39:28;;;;;;;33.97;24.00;;;;;;;;;;5075665;28;20492;-73
2022/11/14 04:42:17;;;;;;;31.07;23.43;;;;;;;;;;5070474;28;20476;-73
2022/11/14 04:45:13;;;;;;;35.57;23.83;;;;;;;;;;5070716;28;20458;-73
2022/11/14 04:48:02;;;;;;;29.07;22.70;;;;;;;;;;5076318;28;20464;-73
2022/11/14 04:50:50;;;;;;;29.97;23.40;;;;;;;;;;5078067;28;20830;-73
2022/11/14 04:53:39;;;;;;;32.73;23.23;;;;;;;;;;5077378;28;20464;-72
2022/11/14 04:56:36;;;;;;;31.90;23.83;;;;;;;;;;5078594;28;20453;-73
2022/11/14 04:59:27;;;;;;;31.57;22.87;;;;;;;;;;5071933;28;20676;-72
2022/11/14 05:02:16;;;;;;;35.07;24.10;;;;;;;;;;5073902;28;20892;-72
2022/11/14 05:05:05;;;;;;;35.47;23.03;;;;;;;;;;5070780;28;20454;-72
2022/11/14 05:08:02;;;;;;;33.73;23.70;;;;;;;;;;5068694;28;20642;-72
2022/11/14 05:10:53;;;;;;;32.93;23.40;;;;;;;;;;5062364;28;20488;-73
2022/11/14 05:13:45;;;;;;;32.00;24.43;;;;;;;;;;5064906;28;20514;-73
2022/11/14 05:16:36;;;;;;;29.93;23.17;;;;;;;;;;5068912;28;20460;-73
2022/11/14 05:19:28;;;;;;;33.83;25.20;;;;;;;;;;5069727;28;21007;-73
2022/11/14 05:22:16;;;;;;;32.73;23.00;;;;;;;;;;5070019;28;20473;-73
2022/11/14 05:25:12;;;;;;;32.13;24.60;;;;;;;;;;5066861;28;20995;-73
2022/11/14 05:28:02;;;;;;;35.07;24.70;;;;;;;;;;5065891;28;21032;-73
2022/11/14 05:30:53;;;;;;;35.53;25.20;;;;;;;;;;5060902;28;20487;-73
2022/11/14 05:33:45;;;;;;;33.53;24.13;;;;;;;;;;5068061;28;20478;-72
2022/11/14 05:36:34;;;;;;;33.13;23.80;;;;;;;;;;5067224;28;21403;-73
2022/11/14 05:39:22;;;;;;;32.10;23.97;;;;;;;;;;5070411;28;20457;-73
2022/11/14 05:42:11;;;;;;;36.33;25.40;;;;;;;;;;5066551;28;20468;-73
2022/11/14 05:45:01;;;;;;;34.40;25.00;;;;;;;;;;5054935;28;20457;-73
2022/11/14 05:47:53;;;;;;;36.50;24.00;;;;;;;;;;5064921;28;20459;-73
2022/11/14 05:50:45;;;;;;;36.50;24.60;;;;;;;;;;5062372;28;20541;-72
2022/11/14 05:53:36;;;;;;;37.67;25.60;;;;;;;;;;5066618;28;20473;-72
2022/11/14 05:56:24;;;;;;;36.47;25.50;;;;;;;;;;5066091;28;20453;-73
2022/11/14 05:59:14;;;;;;;39.43;25.70;;;;;;;;;;5070710;28;20457;-72
2022/11/14 06:02:08;;;;;;;38.43;25.57;;;;;;;;;;5064448;28;20473;-73
2022/11/14 06:04:58;;;;;;;37.70;25.17;;;;;;;;;;5075217;28;20523;-73
2022/11/14 06:07:53;;;;;;;36.40;25.40;;;;;;;;;;5076494;28;20454;-72
2022/11/14 06:10:44;;;;;;;33.77;25.00;;;;;;;;;;5061340;28;20484;-73
2022/11/14 06:13:33;;;;;;;33.33;23.87;;;;;;;;;;5063217;28;20570;-72
2022/11/14 06:16:25;;;;;;;33.83;24.90;;;;;;;;;;5066120;28;21027;-72
2022/11/14 06:19:13;;;;;;;35.60;25.00;;;;;;;;;;5068071;28;20461;-72
2022/11/14 06:22:08;;;;;;;36.20;24.63;;;;;;;;;;5072807;28;20489;-72
2022/11/14 06:24:56;;;;;;;36.03;25.43;;;;;;;;;;5070887;28;20866;-73
2022/11/14 06:27:45;;;;;;;35.30;24.53;;;;;;;;;;5062133;28;20461;-73
2022/11/14 06:30:37;;;;;;;36.73;25.20;;;;;;;;;;5073587;28;20465;-73
2022/11/14 06:33:25;;;;;;;34.43;24.60;;;;;;;;;;5051708;28;20477;-73
2022/11/14 06:36:15;;;;;;;37.77;25.43;;;;;;;;;;5071673;28;20522;-73
2022/11/14 06:39:05;;;;;;;37.43;24.90;;;;;;;;;;5077674;28;20447;-73
2022/11/14 06:41:58;;;;;;;36.33;24.00;;;;;;;;;;5080336;28;20475;-72
2022/11/14 06:44:49;;;;;;;34.37;24.70;;;;;;;;;;5073327;28;20567;-73
2022/11/14 06:47:40;;;;;;;36.30;25.67;;;;;;;;;;5077882;28;20469;-73
2022/11/14 06:50:30;;;;;;;36.00;25.07;;;;;;;;;;5076677;28;20488;-72
2022/11/14 06:53:19;;;;;;;36.40;23.87;;;;;;;;;;5070954;28;20481;-71
2022/11/14 06:56:15;;;;;;;36.40;23.67;;;;;;;;;;5076621;28;20820;-74
2022/11/14 06:59:04;;;;;;;34.27;24.03;;;;;;;;;;5079465;28;20971;-72
2022/11/14 07:01:55;;;;;;;35.03;23.80;;;;;;;;;;5077684;28;21019;-72
2022/11/14 07:04:52;;;;;;;36.37;24.70;;;;;;;;;;5077609;28;20824;-72
2022/11/14 07:07:46;;;;;;;32.70;24.20;;;;;;;;;;5074979;28;20437;-72
2022/11/14 07:10:34;;;;;;;40.00;26.67;;;;;;;;;;5076794;28;20829;-72
2022/11/14 07:13:27;;;;;;;37.07;25.10;;;;;;;;;;5077031;28;20480;-72
2022/11/14 07:16:18;;;;;;;38.97;26.40;;;;;;;;;;5076904;28;20453;-71
2022/11/14 07:19:09;;;;;;;33.93;24.30;;;;;;;;;;5065771;28;20980;-72
2022/11/14 07:21:59;;;;;;;37.90;24.57;;;;;;;;;;5074035;28;20492;-72
2022/11/14 07:24:50;;;;;;;37.07;25.40;;;;;;;;;;5074906;28;20494;-72
2022/11/14 07:27:42;;;;;;;39.00;25.47;;;;;;;;;;5075379;28;20469;-72
2022/11/14 07:30:34;;;;;;;37.77;25.40;;;;;;;;;;5076180;28;20602;-73
2022/11/14 07:33:26;;;;;;;39.13;26.67;;;;;;;;;;5078153;28;20473;-72
2022/11/14 07:36:15;;;;;;;37.97;24.00;;;;;;;;;;5079494;28;20449;-73
2022/11/14 07:39:07;;;;;;;37.00;24.27;;;;;;;;;;5078165;28;20453;-72
2022/11/14 07:41:56;;;;;;;39.03;25.80;;;;;;;;;;5074068;28;21031;-71
2022/11/14 07:44:46;;;;;;;35.83;25.97;;;;;;;;;;5077080;28;20450;-72
2022/11/14 07:47:41;;;;;;;36.13;25.87;;;;;;;;;;5075615;28;20450;-72
2022/11/14 07:50:30;;;;;;;37.30;25.50;;;;;;;;;;5075998;28;20857;-73
2022/11/14 07:53:23;;;;;;;39.13;26.13;;;;;;;;;;5078304;28;21027;-73
2022/11/14 07:56:16;;;;;;;40.50;25.17;;;;;;;;;;5074807;28;20454;-72
2022/11/14 07:59:07;;;;;;;35.93;25.40;;;;;;;;;;5070435;28;20472;-72
2022/11/14 08:02:00;;;;;;;40.63;26.50;;;;;;;;;;5071059;28;20493;-73
2022/11/14 08:04:50;;;;;;;41.00;26.70;;;;;;;;;;5069085;28;20449;-74
2022/11/14 08:07:39;;;;;;;43.20;27.03;;;;;;;;;;5072635;28;20832;-72
2022/11/14 08:10:33;;;;;;;40.63;26.07;;;;;;;;;;5072846;28;20894;-74
2022/11/14 08:13:23;;;;;;;39.00;26.10;;;;;;;;;;5067291;28;20484;-74
2022/11/14 08:16:23;;;;;;;40.87;26.80;;;;;;;;;;5077039;28;20467;-72
2022/11/14 08:19:12;;;;;;;41.00;28.17;;;;;;;;;;5073969;28;20488;-74
2022/11/14 08:22:02;;;;;;;42.27;26.70;;;;;;;;;;5071094;28;20476;-73
2022/11/14 08:24:51;;;;;;;41.30;27.23;;;;;;;;;;5065937;28;20445;-72
2022/11/14 08:27:40;;;;;;;39.90;26.60;;;;;;;;;;5077700;28;20546;-73
2022/11/14 08:30:31;;;;;;;41.60;27.27;;;;;;;;;;5076741;28;20500;-72
2022/11/14 08:33:20;;;;;;;40.30;27.57;;;;;;;;;;5073865;28;20886;-72
2022/11/14 08:36:10;;;;;;;40.77;26.23;;;;;;;;;;5067348;28;20456;-73
2022/11/14 08:39:02;;;;;;;36.87;26.20;;;;;;;;;;5063923;28;20456;-73
2022/11/14 08:41:52;;;;;;;39.47;25.80;;;;;;;;;;5072850;28;20477;-73
2022/11/14 08:44:41;;;;;;;35.10;24.60;;;;;;;;;;5075969;28;20536;-73
2022/11/14 08:47:31;;;;;;;41.63;25.77;;;;;;;;;;5075206;28;20470;-72
2022/11/14 08:50:25;;;;;;;39.60;25.60;;;;;;;;;;5077717;28;20502;-73
2022/11/14 08:53:19;;;;;;;35.77;24.80;;;;;;;;;;5076753;28;20458;-72
2022/11/14 08:56:18;;;;;;;38.30;24.87;;;;;;;;;;5077982;28;20975;-72
2022/11/14 08:59:09;;;;;;;37.00;25.80;;;;;;;;;;5076365;28;21029;-73
2022/11/14 09:01:57;;;;;;;40.27;26.27;;;;;;;;;;5074399;28;20485;-72
2022/11/14 09:04:46;;;;;;;38.20;25.20;;;;;;;;;;5074501;28;21398;-73
2022/11/14 09:07:35;;;;;;;40.37;26.17;;;;;;;;;;5073919;28;20457;-72
2022/11/14 09:10:23;;;;;;;39.90;25.83;;;;;;;;;;5076304;28;20461;-72
2022/11/14 09:13:18;;;;;;;37.80;25.93;;;;;;;;;;5074074;28;20441;-72
2022/11/14 09:16:13;;;;;;;38.70;25.10;;;;;;;;;;5076632;28;20956;-72
2022/11/14 09:19:05;;;;;;;38.77;27.13;;;;;;;;;;5072259;28;20466;-73
2022/11/14 09:21:54;;;;;;;41.20;26.00;;;;;;;;;;5072770;28;20469;-73
2022/11/14 09:24:48;;;;;;;36.90;24.47;;;;;;;;;;5079939;28;20449;-73
2022/11/14 09:27:36;;;;;;;40.17;26.17;;;;;;;;;;5078675;28;20449;-73
2022/11/14 09:30:32;;;;;;;39.23;26.00;;;;;;;;;;5072610;28;20497;-73
2022/11/14 09:33:23;;;;;;;36.77;25.27;;;;;;;;;;5077626;28;20956;-73
2022/11/14 09:36:15;;;;;;;37.50;25.17;;;;;;;;;;5079050;28;20457;-73
2022/11/14 09:39:06;;;;;;;38.93;24.60;;;;;;;;;;5078463;28;20992;-73
2022/11/14 09:42:02;;;;;;;41.13;26.93;;;;;;;;;;5082831;28;20462;-72
2022/11/14 09:44:55;;;;;;;39.73;25.60;;;;;;;;;;5081100;28;20830;-73
2022/11/14 09:47:46;;;;;;;40.87;26.80;;;;;;;;;;5076800;28;20560;-73
2022/11/14 09:50:37;;;;;;;38.47;24.50;;;;;;;;;;5079962;28;20481;-73
2022/11/14 09:53:32;;;;;;;39.00;25.60;;;;;;;;;;5080131;28;20464;-73
2022/11/14 09:56:23;;;;;;;37.60;25.97;;;;;;;;;;5079557;28;20540;-73
2022/11/14 09:59:13;;;;;;;37.77;24.70;;;;;;;;;;5082667;28;20450;-72
2022/11/14 10:02:07;;;;;;;41.03;27.77;;;;;;;;;;5079403;28;20477;-72
2022/11/14 10:05:02;;;;;;;37.03;25.20;;;;;;;;;;5080331;28;20446;-73
2022/11/14 10:08:00;;;;;;;40.47;25.77;;;;;;;;;;5080819;28;20462;-73
2022/11/14 10:10:58;;;;;;;35.53;24.30;;;;;;;;;;5079645;28;20943;-73
2022/11/14 10:13:54;;;;;;;39.10;24.33;;;;;;;;;;5079195;28;20441;-73
2022/11/14 10:16:45;;;;;;;37.37;25.63;;;;;;;;;;5081899;28;20457;-73
2022/11/14 10:19:41;;;;;;;38.60;25.50;;;;;;;;;;5077434;28;20457;-73
2022/11/14 10:22:41;;;;;;;37.40;26.60;;;;;;;;;;5078411;28;20489;-72
2022/11/14 10:25:38;;;;;;;39.03;26.60;;;;;;;;;;5081829;28;20452;-72
2022/11/14 10:28:43;;;;;;;38.33;25.70;;;;;;;;;;5080589;28;20458;-73
2022/11/14 10:31:38;;;;;;;39.83;25.30;;;;;;;;;;5079244;28;22472;-72
2022/11/14 10:34:34;;;;;;;37.10;25.10;;;;;;;;;;5076751;28;20465;-73
2022/11/14 10:37:28;;;;;;;38.20;25.67;;;;;;;;;;5072854;28;20547;-73
2022/11/14 10:40:22;;;;;;;33.30;23.53;;;;;;;;;;5078428;28;20528;-73
2022/11/14 10:43:21;;;;;;;37.67;25.33;;;;;;;;;;5079167;28;20456;-73
2022/11/14 10:46:16;;;;;;;38.33;25.37;;;;;;;;;;5079318;28;20442;-73
2022/11/14 10:49:18;;;;;;;35.80;25.70;;;;;;;;;;5075902;28;20466;-73
2022/11/14 10:52:08;;;;;;;34.53;24.80;;;;;;;;;;5078152;28;20482;-73
2022/11/14 10:54:59;;;;;;;35.33;24.67;;;;;;;;;;5080728;28;20477;-73
2022/11/14 10:57:54;;;;;;;34.00;24.87;;;;;;;;;;5075968;28;20449;-73
2022/11/14 11:00:49;;;;;;;31.30;24.00;;;;;;;;;;5080349;28;20465;-73
2022/11/14 11:03:45;;;;;;;36.53;25.17;;;;;;;;;;5077170;28;20477;-73
2022/11/14 11:06:36;;;;;;;38.87;26.30;;;;;;;;;;5078805;28;20449;-72
2022/11/14 11:12:45;;;;;;;35.57;24.73;;;;;;;;;;5077025;28;20498;-73
2022/11/14 11:15:47;;;;;;;33.70;25.17;;;;;;;;;;5080338;28;20868;-72
2022/11/14 11:18:40;;;;;;;31.67;23.70;;;;;;;;;;5076516;28;20448;-73
2022/11/14 11:21:50;;;;;;;33.83;25.00;;;;;;;;;;5076925;28;20481;-73
2022/11/14 11:24:40;;;;;;;34.30;25.00;;;;;;;;;;5079118;28;20481;-73
2022/11/14 11:27:37;;;;;;;34.60;26.03;;;;;;;;;;5079823;28;20470;-73
2022/11/14 11:30:34;;;;;;;30.27;23.70;;;;;;;;;;5076671;28;20474;-73
2022/11/14 11:33:31;;;;;;;29.70;22.47;;;;;;;;;;5076791;28;20449;-73
2022/11/14 11:36:25;;;;;;;29.83;23.43;;;;;;;;;;5078560;28;21348;-73
2022/11/14 11:39:20;;;;;;;30.47;24.00;;;;;;;;;;5076235;28;20450;-73
2022/11/14 11:42:17;;;;;;;29.70;22.93;;;;;;;;;;5075348;28;20477;-72
2022/11/14 11:45:11;;;;;;;31.73;23.30;;;;;;;;;;5079295;28;20460;-73
2022/11/14 11:48:12;;;;;;;31.27;24.70;;;;;;;;;;5074279;28;20614;-73
2022/11/14 11:51:04;;;;;;;31.57;23.70;;;;;;;;;;5078072;28;20477;-73
2022/11/14 11:54:01;;;;;;;32.77;24.13;;;;;;;;;;5072928;28;20457;-73
2022/11/14 11:56:57;;;;;;;26.47;21.77;;;;;;;;;;5079437;28;20462;-73
2022/11/14 11:59:49;;;;;;;30.07;22.80;;;;;;;;;;5076396;28;20924;-73
2022/11/14 12:02:42;;;;;;;31.03;22.73;;;;;;;;;;5074711;28;20469;-73
2022/11/14 12:05:44;;;;;;;30.70;22.80;;;;;;;;;;5077466;28;20445;-73
2022/11/14 12:08:43;;;;;;;30.33;22.60;;;;;;;;;;5077240;28;20461;-73
2022/11/14 12:11:38;;;;;;;29.23;22.10;;;;;;;;;;5073585;28;20469;-72
2022/11/14 12:14:49;;;;;;;27.80;21.30;;;;;;;;;;5080431;28;20453;-73
2022/11/14 12:18:01;;;;;;;29.97;22.37;;;;;;;;;;5076827;28;21159;-73
2022/11/14 12:21:02;;;;;;;25.07;20.33;;;;;;;;;;5072906;28;20563;-72
2022/11/14 12:24:16;;;;;;;29.20;22.53;;;;;;;;;;5071291;28;20630;-73
2022/11/14 12:27:18;;;;;;;25.70;20.73;;;;;;;;;;5073053;28;20837;-74
2022/11/14 12:30:14;;;;;;;24.47;21.40;;;;;;;;;;5073965;28;20452;-74
2022/11/14 12:33:04;;;;;;;25.57;21.70;;;;;;;;;;5071930;28;20579;-73
2022/11/14 12:35:58;;;;;;;22.50;19.77;;;;;;;;;;5071354;28;20482;-73
2022/11/14 12:38:55;;;;;;;27.30;22.10;;;;;;;;;;5065777;28;20484;-73
2022/11/14 12:41:55;;;;;;;25.40;22.37;;;;;;;;;;5068965;28;20510;-73
2022/11/14 12:44:45;;;;;;;28.10;22.60;;;;;;;;;;5070909;28;20468;-73
2022/11/14 12:47:37;;;;;;;25.57;21.23;;;;;;;;;;5069580;28;21523;-73
2022/11/14 12:50:35;;;;;;;24.67;20.67;;;;;;;;;;5072615;28;20453;-73
2022/11/14 12:53:45;;;;;;;26.07;22.67;;;;;;;;;;5072608;28;20983;-72
2022/11/14 12:56:47;;;;;;;31.73;22.93;;;;;;;;;;5077320;28;20564;-73
2022/11/14 12:59:53;;;;;;;28.40;22.60;;;;;;;;;;5074888;28;20449;-73
2022/11/14 13:03:07;;;;;;;27.40;22.40;;;;;;;;;;5077957;28;21071;-73
2022/11/14 13:05:58;;;;;;;28.30;22.27;;;;;;;;;;5073519;28;20476;-72
2022/11/14 13:08:57;;;;;;;28.77;21.50;;;;;;;;;;5073160;28;20457;-73
2022/11/14 13:24:48;;;;;;;29.50;22.90;;;;;;;;;;5078294;28;21043;-73
2022/11/14 13:27:38;;;;;;;28.30;22.13;;;;;;;;;;5079364;28;20976;-72
2022/11/14 13:31:18;;;;;;;29.47;21.43;;;;;;;;;;5080533;28;20481;-73
2022/11/14 13:34:33;;;;;;;28.53;23.10;;;;;;;;;;5076055;28;20461;-73
2022/11/14 13:37:34;;;;;;;31.73;23.67;;;;;;;;;;5078048;28;20482;-72
2022/11/14 13:40:28;;;;;;;27.23;21.93;;;;;;;;;;5077854;28;20453;-72
2022/11/14 13:43:25;;;;;;;29.03;22.77;;;;;;;;;;5077741;28;20449;-72
2022/11/14 13:46:27;;;;;;;30.63;23.50;;;;;;;;;;5076780;28;20461;-73
2022/11/14 13:49:25;;;;;;;32.20;24.13;;;;;;;;;;5072352;28;20461;-73
2022/11/14 13:52:19;;;;;;;33.77;24.40;;;;;;;;;;5075086;28;20483;-73
2022/11/14 13:55:08;;;;;;;28.80;22.77;;;;;;;;;;5076384;28;22190;-73
2022/11/14 13:58:09;;;;;;;29.80;22.60;;;;;;;;;;5080385;28;20449;-73
2022/11/14 14:01:08;;;;;;;30.03;23.33;;;;;;;;;;5074753;28;20474;-73
2022/11/14 14:04:17;;;;;;;28.83;22.60;;;;;;;;;;5073709;28;20460;-73
2022/11/14 14:07:10;;;;;;;31.17;23.63;;;;;;;;;;5076284;28;20438;-73
2022/11/14 14:10:05;;;;;;;30.60;23.40;;;;;;;;;;5078613;28;20465;-72
2022/11/14 14:13:07;;;;;;;31.80;22.83;;;;;;;;;;5075803;28;20979;-73
2022/11/14 14:16:02;;;;;;;34.57;24.40;;;;;;;;;;5075083;28;20469;-75
2022/11/14 14:18:56;;;;;;;28.70;22.03;;;;;;;;;;5075973;28;20485;-75
2022/11/14 14:21:50;;;;;;;33.27;23.87;;;;;;;;;;5073437;28;20539;-73
2022/11/14 14:24:44;;;;;;;27.60;22.13;;;;;;;;;;5069985;28;20446;-73
2022/11/14 14:27:55;;;;;;;29.17;22.93;;;;;;;;;;5075450;28;21183;-73
2022/11/14 14:30:59;;;;;;;33.73;24.60;;;;;;;;;;5073421;28;20477;-72
2022/11/14 14:33:54;;;;;;;30.00;23.03;;;;;;;;;;5071422;28;20494;-73
2022/11/14 14:36:52;;;;;;;25.83;21.70;;;;;;;;;;5067013;28;20495;-72
2022/11/14 14:39:55;;;;;;;30.20;22.73;;;;;;;;;;5075580;28;20560;-72
2022/11/14 14:42:48;;;;;;;28.47;22.33;;;;;;;;;;5066567;28;20492;-72
2022/11/14 14:45:49;;;;;;;30.00;22.40;;;;;;;;;;5065922;28;20442;-73
2022/11/14 14:48:45;;;;;;;31.10;23.23;;;;;;;;;;5064196;28;20453;-72
2022/11/14 14:51:41;;;;;;;29.40;22.90;;;;;;;;;;5058531;28;20547;-73
2022/11/14 14:54:35;;;;;;;33.60;23.77;;;;;;;;;;5069925;28;20453;-73
2022/11/14 14:57:24;;;;;;;29.43;22.67;;;;;;;;;;5071294;28;20478;-73
2022/11/14 15:00:25;;;;;;;28.77;23.40;;;;;;;;;;5070605;28;20467;-72
2022/11/14 15:03:14;;;;;;;31.00;23.17;;;;;;;;;;5071112;28;20851;-72
2022/11/14 15:06:11;;;;;;;31.50;23.83;;;;;;;;;;5068334;28;20445;-73
2022/11/14 15:09:11;;;;;;;33.87;23.70;;;;;;;;;;5072163;28;21057;-72
2022/11/14 15:12:04;;;;;;;31.13;23.60;;;;;;;;;;5067603;28;20482;-73
2022/11/14 15:14:54;;;;;;;28.33;22.70;;;;;;;;;;5066503;28;20450;-72
2022/11/14 15:17:43;;;;;;;35.53;24.27;;;;;;;;;;5062405;28;20469;-73
2022/11/14 15:20:31;;;;;;;31.20;24.50;;;;;;;;;;5053608;28;20482;-73
2022/11/14 15:23:23;;;;;;;31.40;23.23;;;;;;;;;;5071009;28;20464;-73
2022/11/14 15:26:23;;;;;;;32.90;24.73;;;;;;;;;;5071207;28;20606;-73
2022/11/14 15:29:18;;;;;;;31.53;23.83;;;;;;;;;;5073741;28;20458;-73
2022/11/14 15:32:18;;;;;;;32.17;24.43;;;;;;;;;;5073621;28;20485;-73
2022/11/14 15:35:08;;;;;;;32.30;24.00;;;;;;;;;;5070563;28;20456;-72
2022/11/14 15:38:00;;;;;;;33.83;24.57;;;;;;;;;;5071834;28;20646;-72
2022/11/14 15:41:10;;;;;;;30.40;22.60;;;;;;;;;;5066251;28;20492;-73
2022/11/14 15:44:04;;;;;;;32.13;23.83;;;;;;;;;;5077963;28;20984;-73
2022/11/14 15:47:03;;;;;;;30.70;23.37;;;;;;;;;;5078369;28;20457;-73
2022/11/14 15:49:58;;;;;;;32.73;24.87;;;;;;;;;;5075666;28;20454;-72
2022/11/14 15:52:49;;;;;;;31.67;23.53;;;;;;;;;;5074383;28;20485;-72
2022/11/14 15:55:37;;;;;;;30.20;24.43;;;;;;;;;;5073151;28;20450;-73
2022/11/14 15:58:32;;;;;;;33.97;24.80;;;;;;;;;;5073712;28;20519;-74
2022/11/14 16:01:24;;;;;;;32.33;23.80;;;;;;;;;;5064959;28;20469;-75
2022/11/14 16:04:21;;;;;;;33.10;23.33;;;;;;;;;;5064605;28;20453;-75
2022/11/14 16:07:13;;;;;;;35.30;24.97;;;;;;;;;;5070038;28;20445;-74
2022/11/14 16:10:11;;;;;;;32.03;23.03;;;;;;;;;;5065956;28;20568;-72
2022/11/14 16:13:09;;;;;;;32.10;23.30;;;;;;;;;;5066820;28;20614;-71
2022/11/14 16:16:14;;;;;;;34.20;24.43;;;;;;;;;;5067939;28;23320;-72
2022/11/14 16:19:09;;;;;;;32.33;25.07;;;;;;;;;;5054229;28;20536;-72
2022/11/14 16:22:05;;;;;;;33.03;24.10;;;;;;;;;;5055351;28;20869;-71
2022/11/14 16:25:01;;;;;;;30.17;24.53;;;;;;;;;;5047767;28;20455;-71
2022/11/14 16:28:04;;;;;;;32.30;24.57;;;;;;;;;;5052592;28;20437;-71
2022/11/14 16:30:52;;;;;;;33.93;25.10;;;;;;;;;;5064943;28;20568;-72
2022/11/14 16:33:47;;;;;;;32.13;23.63;;;;;;;;;;5061768;28;20579;-71
2022/11/14 16:36:36;;;;;;;31.40;23.30;;;;;;;;;;5057354;28;20457;-71
2022/11/14 16:39:38;;;;;;;29.47;23.20;;;;;;;;;;5050408;28;20458;-72
2022/11/14 16:42:29;;;;;;;34.30;24.83;;;;;;;;;;5069599;28;20481;-72
2022/11/14 16:45:27;;;;;;;31.93;24.30;;;;;;;;;;5054493;28;20446;-70
2022/11/14 16:48:17;;;;;;;33.73;24.57;;;;;;;;;;5052859;28;20992;-71
2022/11/14 16:51:09;;;;;;;33.07;24.70;;;;;;;;;;5071389;28;20854;-72
2022/11/14 16:54:20;;;;;;;29.80;24.80;;;;;;;;;;5072043;28;20460;-72
2022/11/14 16:57:13;;;;;;;32.00;24.13;;;;;;;;;;5059985;28;20473;-72
2022/11/14 17:00:09;;;;;;;32.70;24.77;;;;;;;;;;5052604;28;20510;-71
2022/11/14 17:03:02;;;;;;;33.50;24.37;;;;;;;;;;5053200;28;22224;-71
2022/11/14 17:05:52;;;;;;;33.77;24.67;;;;;;;;;;5051893;28;20477;-71
2022/11/14 17:08:41;;;;;;;34.30;26.00;;;;;;;;;;5066373;28;20534;-72
2022/11/14 17:11:30;;;;;;;37.07;23.97;;;;;;;;;;5062072;28;20868;-71